Time;durP1;ratioP1;P1;durP2;ratioP2;P2;SDS_P1;SDS_P2;PMS_P1;PMS_P2;Temp;Humidity;BMP_temperature;BMP_pressure;BME280_temperature;BME280_humidity;BME280_pressure;Samples;Min_cycle;Max_cycle;Signal;HPM_P1;HPM_P2
2024/01/11 00:00:59;;;;;;;21.47;8.80;;;;;;;;;;4962896;29;20273;-57
2024/01/11 00:03:24;;;;;;;34.97;11.33;;;;;;;;;;4962352;29;20034;-58
2024/01/11 00:05:50;;;;;;;29.20;10.77;;;;;;;;;;4958486;29;20028;-59
2024/01/11 00:08:15;;;;;;;26.90;10.90;;;;;;;;;;4958539;29;20036;-56
2024/01/11 00:10:41;;;;;;;25.90;10.00;;;;;;;;;;4958648;29;20270;-58
2024/01/11 00:13:06;;;;;;;30.40;10.47;;;;;;;;;;4963812;29;20090;-56
2024/01/11 00:15:31;;;;;;;26.93;11.43;;;;;;;;;;4962486;29;20042;-58
2024/01/11 00:17:56;;;;;;;31.10;11.33;;;;;;;;;;4960140;29;20043;-57
2024/01/11 00:20:22;;;;;;;26.73;11.33;;;;;;;;;;4961702;29;20039;-58
2024/01/11 00:22:48;;;;;;;30.20;11.13;;;;;;;;;;4958911;29;20032;-58
2024/01/11 00:25:14;;;;;;;28.83;11.18;;;;;;;;;;4957711;29;20032;-56
2024/01/11 00:27:39;;;;;;;26.93;11.33;;;;;;;;;;4958409;29;20046;-57
2024/01/11 00:30:05;;;;;;;29.23;10.90;;;;;;;;;;4966064;29;20044;-54
2024/01/11 00:32:30;;;;;;;27.33;11.02;;;;;;;;;;4966402;29;20035;-55
2024/01/11 00:34:56;;;;;;;30.40;10.93;;;;;;;;;;4961904;29;20058;-56
2024/01/11 00:37:21;;;;;;;30.02;11.70;;;;;;;;;;4957852;29;20035;-55
2024/01/11 00:39:47;;;;;;;28.00;10.43;;;;;;;;;;4962699;29;20103;-58
2024/01/11 00:42:13;;;;;;;;;;;;;;;;;;4958678;29;20034;-57
2024/01/11 00:44:38;;;;;;;34.10;11.93;;;;;;;;;;4957578;29;19912;-58
2024/01/11 00:47:04;;;;;;;32.73;11.33;;;;;;;;;;4967043;29;20031;-58
2024/01/11 00:49:29;;;;;;;33.45;12.27;;;;;;;;;;4957895;29;20739;-56
2024/01/11 00:51:55;;;;;;;32.28;11.38;;;;;;;;;;4960858;29;20031;-55
2024/01/11 00:54:20;;;;;;;27.27;10.87;;;;;;;;;;4957456;29;20046;-56
2024/01/11 00:56:47;;;;;;;37.03;11.10;;;;;;;;;;4963593;29;20038;-56
2024/01/11 00:59:12;;;;;;;32.33;11.85;;;;;;;;;;4961812;29;20040;-57
2024/01/11 01:01:38;;;;;;;37.97;12.43;;;;;;;;;;4957138;29;20051;-55
2024/01/11 01:04:03;;;;;;;26.17;10.00;;;;;;;;;;4962039;29;20036;-53
2024/01/11 01:06:29;;;;;;;28.03;11.70;;;;;;;;;;4957283;29;20039;-58
2024/01/11 01:08:55;;;;;;;29.17;12.17;;;;;;;;;;4958450;29;20284;-55
2024/01/11 01:11:20;;;;;;;30.73;11.65;;;;;;;;;;4956900;29;20298;-55
2024/01/11 01:13:46;;;;;;;23.73;9.67;;;;;;;;;;4958638;29;20044;-58
2024/01/11 01:16:11;;;;;;;29.57;12.23;;;;;;;;;;4940502;29;20064;-56
2024/01/11 01:18:36;;;;;;;25.40;10.73;;;;;;;;;;4962846;29;20026;-57
2024/01/11 01:21:02;;;;;;;28.33;11.93;;;;;;;;;;4957334;29;20031;-56
2024/01/11 01:23:27;;;;;;;28.80;10.52;;;;;;;;;;4960954;29;20228;-59
2024/01/11 01:25:53;;;;;;;35.87;13.23;;;;;;;;;;4956894;29;20047;-56
2024/01/11 01:28:18;;;;;;;24.37;8.93;;;;;;;;;;4956918;29;20274;-58
2024/01/11 01:30:43;;;;;;;27.60;11.60;;;;;;;;;;4957227;29;20035;-56
2024/01/11 01:33:08;;;;;;;29.93;10.97;;;;;;;;;;4964193;29;20039;-54
2024/01/11 01:35:34;;;;;;;29.73;11.33;;;;;;;;;;4957196;29;20095;-58
2024/01/11 01:38:00;;;;;;;30.17;10.57;;;;;;;;;;4956551;29;20091;-59
2024/01/11 01:40:25;;;;;;;30.33;11.25;;;;;;;;;;4958243;29;20028;-59
2024/01/11 01:42:57;;;;;;;24.50;10.07;;;;;;;;;;4959333;29;20064;-57
2024/01/11 01:45:22;;;;;;;33.05;13.05;;;;;;;;;;4956916;29;20066;-57
2024/01/11 01:47:48;;;;;;;31.38;11.07;;;;;;;;;;4956659;29;20036;-57
2024/01/11 01:50:14;;;;;;;29.97;11.23;;;;;;;;;;4966947;29;20031;-58
2024/01/11 01:52:41;;;;;;;26.23;11.03;;;;;;;;;;4960253;29;20365;-55
2024/01/11 01:55:06;;;;;;;;;;;;;;;;;;4958380;29;20565;-57
2024/01/11 01:57:32;;;;;;;31.08;10.98;;;;;;;;;;4963044;29;19910;-57
2024/01/11 01:59:58;;;;;;;27.88;11.18;;;;;;;;;;4962991;29;20024;-58
2024/01/11 02:02:24;;;;;;;27.05;11.35;;;;;;;;;;4958137;29;20133;-57
2024/01/11 02:04:50;;;;;;;29.73;10.77;;;;;;;;;;4959419;29;20031;-57
2024/01/11 02:07:15;;;;;;;28.93;11.07;;;;;;;;;;4961193;29;20058;-55
2024/01/11 02:09:42;;;;;;;39.33;12.87;;;;;;;;;;4968769;29;20270;-59
2024/01/11 02:12:10;;;;;;;27.73;11.35;;;;;;;;;;4956929;29;20266;-60
2024/01/11 02:14:37;;;;;;;24.08;11.55;;;;;;;;;;4960384;29;20044;-57
2024/01/11 02:17:02;;;;;;;24.13;9.88;;;;;;;;;;4963230;29;20031;-56
2024/01/11 02:19:28;;;;;;;29.63;10.90;;;;;;;;;;4963989;29;20043;-58
2024/01/11 02:21:54;;;;;;;28.58;12.18;;;;;;;;;;4956454;29;20055;-57
2024/01/11 02:24:20;;;;;;;28.27;11.30;;;;;;;;;;4959304;29;20039;-60
2024/01/11 02:26:59;;;;;;;27.67;10.93;;;;;;;;;;4956116;29;20039;-57
2024/01/11 02:29:25;;;;;;;25.27;9.48;;;;;;;;;;4956900;29;20050;-57
2024/01/11 02:31:51;;;;;;;23.43;10.50;;;;;;;;;;4961326;29;20027;-58
2024/01/11 02:34:16;;;;;;;32.13;11.87;;;;;;;;;;4960434;29;20346;-58
2024/01/11 02:36:42;;;;;;;26.97;10.47;;;;;;;;;;4955803;29;20281;-58
2024/01/11 02:39:07;;;;;;;28.53;11.67;;;;;;;;;;4969793;29;20043;-58
2024/01/11 02:41:33;;;;;;;41.50;12.57;;;;;;;;;;4959337;29;20294;-58
2024/01/11 02:43:59;;;;;;;30.05;11.30;;;;;;;;;;4956729;29;20035;-58
2024/01/11 02:46:25;;;;;;;28.48;11.77;;;;;;;;;;4956421;29;20032;-57
2024/01/11 02:48:52;;;;;;;22.73;8.93;;;;;;;;;;4956411;29;20071;-56
2024/01/11 02:51:17;;;;;;;;;;;;;;;;;;4956912;29;20106;-56
2024/01/11 02:53:42;;;;;;;27.77;10.40;;;;;;;;;;4956034;29;19914;-57
2024/01/11 02:56:08;;;;;;;28.20;10.50;;;;;;;;;;4956338;29;20059;-58
2024/01/11 02:58:33;;;;;;;27.10;11.23;;;;;;;;;;4961709;29;20043;-60
2024/01/11 03:00:58;;;;;;;27.57;11.67;;;;;;;;;;4957874;29;20024;-60
2024/01/11 03:03:23;;;;;;;25.40;11.23;;;;;;;;;;4962950;29;20086;-59
2024/01/11 03:05:49;;;;;;;30.25;11.68;;;;;;;;;;4958631;29;20024;-58
2024/01/11 03:08:14;;;;;;;24.73;10.10;;;;;;;;;;4958722;29;20042;-60
2024/01/11 03:10:40;;;;;;;24.35;10.43;;;;;;;;;;4941016;29;20031;-59
2024/01/11 03:13:07;;;;;;;27.37;10.83;;;;;;;;;;4961321;29;20043;-59
2024/01/11 03:15:33;;;;;;;33.65;11.68;;;;;;;;;;4968446;29;20338;-59
2024/01/11 03:17:58;;;;;;;24.35;10.98;;;;;;;;;;4959323;29;20036;-59
2024/01/11 03:20:24;;;;;;;29.27;11.43;;;;;;;;;;4959585;29;20035;-60
2024/01/11 03:22:51;;;;;;;28.15;10.98;;;;;;;;;;4964303;29;20165;-60
2024/01/11 03:25:17;;;;;;;28.15;11.93;;;;;;;;;;4962907;29;20038;-59
2024/01/11 03:27:42;;;;;;;27.17;10.07;;;;;;;;;;4959268;29;20125;-62
2024/01/11 03:30:08;;;;;;;26.27;10.23;;;;;;;;;;4959610;29;20286;-60
2024/01/11 03:32:33;;;;;;;28.45;10.90;;;;;;;;;;4959477;29;20051;-60
2024/01/11 03:34:58;;;;;;;30.43;12.43;;;;;;;;;;4962782;29;20035;-60
2024/01/11 03:37:24;;;;;;;24.95;11.68;;;;;;;;;;4959292;29;20040;-58
2024/01/11 03:39:50;;;;;;;28.10;11.93;;;;;;;;;;4959304;29;20100;-59
2024/01/11 03:42:15;;;;;;;20.53;9.73;;;;;;;;;;4963261;29;20027;-58
2024/01/11 03:44:40;;;;;;;22.20;9.27;;;;;;;;;;4962563;29;20027;-59
2024/01/11 03:47:06;;;;;;;33.53;11.82;;;;;;;;;;4959249;29;20027;-58
2024/01/11 03:49:32;;;;;;;34.42;12.00;;;;;;;;;;4958678;29;20111;-58
2024/01/11 03:51:57;;;;;;;32.70;12.83;;;;;;;;;;4958922;29;20043;-58
2024/01/11 03:54:22;;;;;;;35.80;11.67;;;;;;;;;;4961430;29;20289;-59
2024/01/11 03:56:48;;;;;;;29.02;11.82;;;;;;;;;;4958735;29;20031;-57
2024/01/11 03:59:14;;;;;;;22.02;8.75;;;;;;;;;;4956089;29;20046;-61
2024/01/11 04:01:40;;;;;;;22.27;9.00;;;;;;;;;;4958941;29;20032;-60
2024/01/11 04:04:05;;;;;;;25.17;10.05;;;;;;;;;;4967645;29;20047;-59
2024/01/11 04:06:31;;;;;;;38.88;11.93;;;;;;;;;;4958763;29;20088;-61
2024/01/11 04:08:57;;;;;;;34.67;12.50;;;;;;;;;;4959818;29;20054;-59
2024/01/11 04:11:22;;;;;;;24.20;12.18;;;;;;;;;;4958507;29;20039;-59
2024/01/11 04:13:47;;;;;;;27.40;12.03;;;;;;;;;;4964298;29;20035;-60
2024/01/11 04:16:13;;;;;;;21.13;10.23;;;;;;;;;;4955247;29;20027;-57
2024/01/11 04:18:39;;;;;;;28.42;11.43;;;;;;;;;;4957253;29;20055;-59
2024/01/11 04:21:05;;;;;;;28.30;11.23;;;;;;;;;;4958554;29;20032;-58
2024/01/11 04:23:30;;;;;;;29.85;11.32;;;;;;;;;;4962008;29;20042;-61
2024/01/11 04:25:56;;;;;;;29.75;12.82;;;;;;;;;;4958284;29;20036;-59
2024/01/11 04:28:21;;;;;;;26.00;11.27;;;;;;;;;;4958166;29;20044;-60
2024/01/11 04:30:47;;;;;;;34.15;13.35;;;;;;;;;;4959233;29;20403;-59
2024/01/11 04:33:12;;;;;;;27.98;10.55;;;;;;;;;;4961494;29;20038;-60
2024/01/11 04:35:38;;;;;;;30.35;12.68;;;;;;;;;;4960026;29;20103;-61
2024/01/11 04:38:03;;;;;;;31.85;11.88;;;;;;;;;;4941678;29;20035;-59
2024/01/11 04:40:29;;;;;;;30.70;12.50;;;;;;;;;;4961400;29;20028;-60
2024/01/11 04:42:54;;;;;;;24.90;10.40;;;;;;;;;;4942760;29;20084;-59
2024/01/11 04:45:19;;;;;;;26.03;9.10;;;;;;;;;;4957767;29;20035;-58
2024/01/11 04:47:45;;;;;;;21.33;8.80;;;;;;;;;;4957926;29;20067;-59
2024/01/11 04:50:10;;;;;;;16.92;8.18;;;;;;;;;;4961458;29;20031;-60
2024/01/11 04:52:36;;;;;;;20.02;7.93;;;;;;;;;;4957496;29;20043;-59
2024/01/11 04:55:02;;;;;;;29.52;10.52;;;;;;;;;;4960749;29;20099;-60
2024/01/11 04:57:27;;;;;;;27.07;11.13;;;;;;;;;;4957756;29;20059;-58
2024/01/11 04:59:53;;;;;;;31.95;12.07;;;;;;;;;;4957277;29;20232;-57
2024/01/11 05:02:22;;;;;;;30.08;11.63;;;;;;;;;;4957752;29;20031;-56
2024/01/11 05:04:47;;;;;;;27.77;12.23;;;;;;;;;;4953588;29;20035;-57
2024/01/11 05:07:13;;;;;;;30.77;12.35;;;;;;;;;;4961437;29;20027;-60
2024/01/11 05:09:39;;;;;;;32.15;13.77;;;;;;;;;;4960445;29;20042;-59
2024/01/11 05:12:05;;;;;;;24.42;10.48;;;;;;;;;;4957429;29;20031;-58
2024/01/11 05:14:31;;;;;;;32.08;12.32;;;;;;;;;;4958827;29;20036;-59
2024/01/11 05:16:56;;;;;;;23.13;9.80;;;;;;;;;;4957945;29;20087;-55
2024/01/11 05:19:21;;;;;;;24.73;9.70;;;;;;;;;;4957143;29;20043;-58
2024/01/11 05:21:47;;;;;;;33.40;13.25;;;;;;;;;;4959112;29;20318;-60
2024/01/11 05:24:12;;;;;;;30.27;11.17;;;;;;;;;;4966980;29;20090;-56
2024/01/11 05:26:37;;;;;;;30.80;11.97;;;;;;;;;;4962272;29;20028;-58
2024/01/11 05:29:04;;;;;;;24.80;10.80;;;;;;;;;;4957606;29;20047;-58
2024/01/11 05:31:30;;;;;;;35.92;13.32;;;;;;;;;;4957014;28;20027;-56
2024/01/11 05:33:55;;;;;;;27.90;10.82;;;;;;;;;;4964219;29;20062;-58
2024/01/11 05:36:21;;;;;;;32.40;13.10;;;;;;;;;;4962080;29;20036;-57
2024/01/11 05:38:46;;;;;;;32.50;14.50;;;;;;;;;;4956592;29;20047;-58
2024/01/11 05:41:12;;;;;;;28.43;12.07;;;;;;;;;;4957906;29;20027;-58
2024/01/11 05:43:38;;;;;;;25.90;10.48;;;;;;;;;;4959120;29;20298;-55
2024/01/11 05:46:04;;;;;;;33.67;15.88;;;;;;;;;;4956675;29;20036;-56
2024/01/11 05:48:29;;;;;;;45.50;16.25;;;;;;;;;;4956647;29;20051;-58
2024/01/11 05:50:56;;;;;;;30.42;14.52;;;;;;;;;;4957750;29;20252;-58
2024/01/11 05:53:21;;;;;;;34.50;13.68;;;;;;;;;;4956776;29;20059;-57
2024/01/11 05:55:47;;;;;;;32.42;13.90;;;;;;;;;;4958373;29;20091;-58
2024/01/11 05:58:13;;;;;;;36.67;12.68;;;;;;;;;;4956962;29;20043;-56
2024/01/11 06:00:38;;;;;;;29.00;12.27;;;;;;;;;;4955811;29;20034;-57
2024/01/11 06:03:04;;;;;;;34.97;13.33;;;;;;;;;;4956733;29;20040;-59
2024/01/11 06:05:29;;;;;;;35.17;14.43;;;;;;;;;;4966137;29;20570;-58
2024/01/11 06:07:55;;;;;;;30.42;12.77;;;;;;;;;;4940067;29;20035;-57
2024/01/11 06:10:21;;;;;;;34.33;13.73;;;;;;;;;;4960520;29;20027;-57
2024/01/11 06:12:46;;;;;;;41.40;13.35;;;;;;;;;;4956379;29;20043;-57
2024/01/11 06:15:12;;;;;;;44.38;17.70;;;;;;;;;;4956192;29;20032;-56
2024/01/11 06:17:37;;;;;;;43.93;16.07;;;;;;;;;;4956608;29;20091;-51
2024/01/11 06:20:03;;;;;;;34.20;12.63;;;;;;;;;;4950275;29;20467;-57
2024/01/11 06:22:29;;;;;;;35.53;15.48;;;;;;;;;;4956068;29;20050;-53
2024/01/11 06:24:54;;;;;;;37.30;15.03;;;;;;;;;;4956403;29;20030;-56
2024/01/11 06:27:19;;;;;;;27.25;11.30;;;;;;;;;;4940636;29;20075;-57
2024/01/11 06:29:45;;;;;;;39.55;14.55;;;;;;;;;;4956078;29;20051;-59
2024/01/11 06:32:11;;;;;;;29.30;12.32;;;;;;;;;;4955855;29;20032;-56
2024/01/11 06:34:37;;;;;;;42.15;16.42;;;;;;;;;;4965116;29;20094;-54
2024/01/11 06:37:02;;;;;;;38.65;16.58;;;;;;;;;;4955546;29;20040;-55
2024/01/11 06:39:28;;;;;;;39.10;16.13;;;;;;;;;;4956156;29;20072;-56
2024/01/11 06:41:53;;;;;;;42.55;17.98;;;;;;;;;;4951488;29;20043;-57
2024/01/11 06:44:19;;;;;;;39.28;16.27;;;;;;;;;;4965500;29;20066;-58
2024/01/11 06:46:44;;;;;;;30.98;12.55;;;;;;;;;;4958684;29;20055;-57
2024/01/11 06:49:10;;;;;;;36.47;15.63;;;;;;;;;;4959326;29;20047;-57
2024/01/11 06:51:35;;;;;;;41.30;15.98;;;;;;;;;;4965837;29;20034;-57
2024/01/11 06:54:01;;;;;;;39.85;15.15;;;;;;;;;;4960745;29;20035;-55
2024/01/11 06:56:27;;;;;;;44.00;16.92;;;;;;;;;;4958640;29;20128;-56
2024/01/11 06:58:54;;;;;;;40.88;15.25;;;;;;;;;;4959457;29;20028;-56
2024/01/11 07:01:20;;;;;;;47.20;17.52;;;;;;;;;;4962784;29;20104;-59
2024/01/11 07:03:45;;;;;;;48.50;17.25;;;;;;;;;;4959961;29;20036;-57
2024/01/11 07:06:10;;;;;;;40.37;16.80;;;;;;;;;;4963436;29;20024;-55
2024/01/11 07:08:35;;;;;;;46.57;19.33;;;;;;;;;;4967308;29;20656;-57
2024/01/11 07:11:04;;;;;;;31.63;12.00;;;;;;;;;;4958940;29;20028;-58
2024/01/11 07:13:31;;;;;;;42.45;16.33;;;;;;;;;;4959244;29;20028;-56
2024/01/11 07:15:57;;;;;;;42.42;17.88;;;;;;;;;;4967987;29;20031;-55
2024/01/11 07:18:26;;;;;;;40.30;17.48;;;;;;;;;;4959198;29;20057;-59
2024/01/11 07:20:52;;;;;;;43.63;17.17;;;;;;;;;;4950945;29;20091;-55
2024/01/11 07:23:18;;;;;;;52.33;17.45;;;;;;;;;;4958465;29;20032;-55
2024/01/11 07:25:43;;;;;;;33.28;14.00;;;;;;;;;;4967940;29;20054;-55
2024/01/11 07:28:08;;;;;;;48.40;17.53;;;;;;;;;;4959385;29;20051;-53
2024/01/11 07:30:34;;;;;;;42.13;17.60;;;;;;;;;;4954978;29;20050;-58
2024/01/11 07:33:00;;;;;;;51.80;18.15;;;;;;;;;;4958723;29;20052;-52
2024/01/11 07:35:26;;;;;;;45.60;17.90;;;;;;;;;;4964706;29;20032;-56
2024/01/11 07:37:51;;;;;;;42.87;16.77;;;;;;;;;;4958929;29;20066;-54
2024/01/11 07:40:17;;;;;;;49.08;19.25;;;;;;;;;;4961178;29;20042;-56
2024/01/11 07:42:43;;;;;;;47.33;18.25;;;;;;;;;;4961565;29;20039;-52
2024/01/11 07:45:10;;;;;;;43.83;18.35;;;;;;;;;;4961972;29;20024;-56
2024/01/11 07:47:36;;;;;;;52.25;19.90;;;;;;;;;;4959769;29;20071;-57
2024/01/11 07:50:01;;;;;;;48.92;19.95;;;;;;;;;;4958717;29;20015;-57
2024/01/11 07:52:27;;;;;;;46.47;19.27;;;;;;;;;;4958688;29;20036;-56
2024/01/11 07:54:54;;;;;;;56.83;20.97;;;;;;;;;;4958128;29;20035;-57
2024/01/11 07:57:19;;;;;;;51.33;19.35;;;;;;;;;;4952818;29;20027;-56
2024/01/11 07:59:47;;;;;;;53.28;19.48;;;;;;;;;;4958670;29;20054;-57
2024/01/11 08:02:12;;;;;;;56.80;22.15;;;;;;;;;;4961586;29;20043;-55
2024/01/11 08:04:38;;;;;;;50.70;20.70;;;;;;;;;;4962679;29;20039;-54
2024/01/11 08:07:04;;;;;;;53.03;20.87;;;;;;;;;;4964583;29;20395;-55
2024/01/11 08:09:31;;;;;;;44.55;18.13;;;;;;;;;;4957828;29;20290;-57
2024/01/11 08:11:58;;;;;;;46.50;19.70;;;;;;;;;;4960052;29;20043;-57
2024/01/11 08:14:24;;;;;;;47.45;20.20;;;;;;;;;;4959486;29;20044;-57
2024/01/11 08:16:50;;;;;;;;;;;;;;;;;;4964019;29;20031;-56
2024/01/11 08:19:15;;;;;;;48.35;19.48;;;;;;;;;;4959118;29;19910;-56
2024/01/11 08:21:41;;;;;;;50.10;20.05;;;;;;;;;;4957793;29;20048;-56
2024/01/11 08:24:07;;;;;;;51.38;20.00;;;;;;;;;;4965039;29;20050;-54
2024/01/11 08:26:33;;;;;;;45.90;19.92;;;;;;;;;;4965407;29;20027;-55
2024/01/11 08:28:58;;;;;;;56.47;19.90;;;;;;;;;;4964919;29;20042;-56
2024/01/11 08:31:24;;;;;;;53.28;20.98;;;;;;;;;;4958210;29;20036;-57
2024/01/11 08:33:50;;;;;;;42.03;17.92;;;;;;;;;;4957263;29;20032;-57
2024/01/11 08:36:16;;;;;;;61.42;25.38;;;;;;;;;;4965167;29;20032;-57
2024/01/11 08:38:42;;;;;;;58.58;20.50;;;;;;;;;;4961459;29;20046;-56
2024/01/11 08:41:07;;;;;;;54.33;20.25;;;;;;;;;;4965120;29;20053;-53
2024/01/11 08:43:32;;;;;;;52.53;20.90;;;;;;;;;;4962309;29;20042;-57
2024/01/11 08:45:58;;;;;;;59.07;19.97;;;;;;;;;;4963547;29;20027;-58
2024/01/11 08:48:24;;;;;;;51.22;20.40;;;;;;;;;;4942625;29;20325;-54
2024/01/11 08:50:50;;;;;;;50.90;20.20;;;;;;;;;;4963155;29;20031;-57
2024/01/11 08:53:15;;;;;;;36.65;16.42;;;;;;;;;;4961649;29;20067;-57
2024/01/11 08:55:41;;;;;;;61.53;20.63;;;;;;;;;;4960663;29;20108;-55
2024/01/11 08:58:07;;;;;;;57.65;22.80;;;;;;;;;;4957733;29;20087;-55
2024/01/11 09:00:32;;;;;;;53.78;21.20;;;;;;;;;;4959645;29;20047;-58
2024/01/11 09:02:58;;;;;;;54.43;21.20;;;;;;;;;;4962414;29;20031;-57
2024/01/11 09:05:24;;;;;;;48.85;20.83;;;;;;;;;;4946306;29;20046;-55
2024/01/11 09:07:49;;;;;;;54.15;23.00;;;;;;;;;;4957319;29;20040;-56
2024/01/11 09:10:15;;;;;;;51.15;21.20;;;;;;;;;;4957406;29;20091;-56
2024/01/11 09:12:40;;;;;;;63.03;23.75;;;;;;;;;;4959693;29;20032;-52
2024/01/11 09:15:06;;;;;;;51.23;21.10;;;;;;;;;;4965370;29;20042;-57
2024/01/11 09:17:32;;;;;;;48.45;21.33;;;;;;;;;;4962089;29;20046;-57
2024/01/11 09:19:58;;;;;;;51.53;20.65;;;;;;;;;;4957139;29;20034;-57
2024/01/11 09:22:24;;;;;;;52.30;22.88;;;;;;;;;;4957468;29;20028;-56
2024/01/11 09:24:50;;;;;;;49.03;22.60;;;;;;;;;;4959414;29;20035;-54
2024/01/11 09:27:15;;;;;;;49.08;21.02;;;;;;;;;;4961058;29;20027;-55
2024/01/11 09:29:44;;;;;;;57.10;21.52;;;;;;;;;;4963991;29;20046;-55
2024/01/11 09:32:09;;;;;;;46.45;20.35;;;;;;;;;;4964458;29;20032;-54
2024/01/11 09:34:35;;;;;;;52.22;20.27;;;;;;;;;;4957451;29;20031;-54
2024/01/11 09:37:01;;;;;;;58.60;21.23;;;;;;;;;;4957200;29;20047;-56
2024/01/11 09:39:26;;;;;;;48.58;19.65;;;;;;;;;;4957129;29;20032;-57
2024/01/11 09:42:07;;;;;;;45.93;19.73;;;;;;;;;;4956854;29;20032;-54
2024/01/11 09:44:33;;;;;;;45.05;20.10;;;;;;;;;;4956757;29;20301;-55
2024/01/11 09:46:59;;;;;;;44.20;19.15;;;;;;;;;;4967110;29;20059;-54
2024/01/11 09:49:25;;;;;;;44.08;17.00;;;;;;;;;;4956576;29;20099;-57
2024/01/11 09:51:52;;;;;;;35.30;15.60;;;;;;;;;;4956457;29;20039;-53
2024/01/11 09:54:20;;;;;;;42.13;18.48;;;;;;;;;;4956358;29;20054;-56
2024/01/11 09:56:46;;;;;;;34.75;17.08;;;;;;;;;;4964313;29;20039;-55
2024/01/11 09:59:11;;;;;;;38.10;16.97;;;;;;;;;;4956707;29;20035;-56
2024/01/11 10:01:37;;;;;;;39.35;19.20;;;;;;;;;;4962855;29;20051;-58
2024/01/11 10:04:04;;;;;;;41.63;18.92;;;;;;;;;;4960540;29;20031;-57
2024/01/11 10:06:33;;;;;;;34.53;15.25;;;;;;;;;;4962176;29;20028;-57
2024/01/11 10:08:58;;;;;;;40.40;18.48;;;;;;;;;;4964542;29;20054;-55
2024/01/11 10:11:24;;;;;;;36.67;17.90;;;;;;;;;;4956402;29;20035;-57
2024/01/11 10:13:55;;;;;;;40.47;18.70;;;;;;;;;;4956219;29;20019;-54
2024/01/11 10:16:21;;;;;;;35.10;17.80;;;;;;;;;;4957881;29;20036;-57
2024/01/11 10:18:47;;;;;;;36.93;19.03;;;;;;;;;;4960553;29;20361;-57
2024/01/11 10:21:13;;;;;;;41.17;19.45;;;;;;;;;;4956625;29;20280;-57
2024/01/11 10:23:39;;;;;;;35.43;17.63;;;;;;;;;;4955865;29;20036;-53
2024/01/11 10:26:07;;;;;;;37.87;18.23;;;;;;;;;;4965773;29;20304;-59
2024/01/11 10:28:36;;;;;;;35.10;18.23;;;;;;;;;;4960994;29;20035;-57
2024/01/11 10:31:01;;;;;;;32.13;18.07;;;;;;;;;;4956669;29;20258;-59
2024/01/11 10:33:26;;;;;;;29.97;16.97;;;;;;;;;;4956309;29;20266;-57
2024/01/11 10:35:52;;;;;;;39.30;18.77;;;;;;;;;;4962711;29;20027;-58
2024/01/11 10:38:18;;;;;;;32.03;17.23;;;;;;;;;;4959989;29;20330;-59
2024/01/11 10:40:43;;;;;;;43.03;21.10;;;;;;;;;;4965256;29;20266;-59
2024/01/11 10:43:11;;;;;;;36.33;18.98;;;;;;;;;;4956498;29;20281;-57
2024/01/11 10:45:38;;;;;;;33.67;18.50;;;;;;;;;;4964046;29;20046;-59
2024/01/11 10:48:07;;;;;;;36.30;19.40;;;;;;;;;;4958489;29;20313;-54
2024/01/11 10:50:39;;;;;;;30.97;17.37;;;;;;;;;;4955167;29;20262;-57
2024/01/11 10:53:24;;;;;;;39.17;19.07;;;;;;;;;;4955934;29;20280;-55
2024/01/11 10:55:50;;;;;;;33.33;17.77;;;;;;;;;;4960425;29;20263;-57
2024/01/11 10:58:15;;;;;;;30.80;17.35;;;;;;;;;;4956395;29;20055;-59
2024/01/11 11:00:41;;;;;;;30.33;16.67;;;;;;;;;;4955860;29;20043;-58
2024/01/11 11:03:06;;;;;;;36.33;19.15;;;;;;;;;;4965152;29;20044;-57
2024/01/11 11:05:35;;;;;;;40.22;18.60;;;;;;;;;;4957500;29;20036;-56
2024/01/11 11:08:01;;;;;;;32.17;16.87;;;;;;;;;;4939185;29;20039;-59
2024/01/11 11:10:28;;;;;;;30.83;16.67;;;;;;;;;;4955976;29;20040;-60
2024/01/11 11:12:55;;;;;;;30.67;16.90;;;;;;;;;;4946180;29;20038;-58
2024/01/11 11:15:22;;;;;;;31.07;17.07;;;;;;;;;;4961876;29;20030;-59
2024/01/11 11:17:49;;;;;;;30.40;16.47;;;;;;;;;;4966227;29;20085;-58
2024/01/11 11:20:16;;;;;;;31.67;16.65;;;;;;;;;;4948060;29;20098;-59
2024/01/11 11:22:42;;;;;;;27.50;14.50;;;;;;;;;;4959477;29;20036;-59
2024/01/11 11:25:23;;;;;;;21.90;11.37;;;;;;;;;;4955465;29;20035;-59
2024/01/11 11:27:48;;;;;;;26.97;12.43;;;;;;;;;;4946719;29;20106;-59
2024/01/11 11:30:14;;;;;;;25.15;12.55;;;;;;;;;;4957924;29;20291;-57
2024/01/11 11:32:43;;;;;;;27.50;12.77;;;;;;;;;;4959363;29;20103;-57
2024/01/11 11:35:09;;;;;;;25.33;12.60;;;;;;;;;;4959051;29;20028;-58
2024/01/11 11:37:38;;;;;;;25.13;10.73;;;;;;;;;;4965738;29;20284;-59
2024/01/11 11:40:07;;;;;;;26.77;11.57;;;;;;;;;;4961879;29;20071;-58
2024/01/11 11:42:34;;;;;;;29.50;12.25;;;;;;;;;;4951003;29;20281;-57
2024/01/11 11:44:59;;;;;;;33.03;12.02;;;;;;;;;;4959440;29;20031;-58
2024/01/11 11:47:31;;;;;;;28.80;11.67;;;;;;;;;;4962176;29;20088;-59
2024/01/11 11:50:10;;;;;;;25.98;11.43;;;;;;;;;;4958796;29;20035;-57
2024/01/11 11:52:37;;;;;;;30.88;11.85;;;;;;;;;;4965928;29;20066;-57
2024/01/11 11:55:04;;;;;;;25.15;10.77;;;;;;;;;;4958753;29;20027;-56
2024/01/11 11:57:30;;;;;;;35.97;12.50;;;;;;;;;;4970521;29;20033;-54
2024/01/11 11:59:57;;;;;;;33.10;11.87;;;;;;;;;;4958609;29;20043;-56
2024/01/11 12:02:23;;;;;;;36.60;12.70;;;;;;;;;;4964287;29;20332;-56
2024/01/11 12:04:48;;;;;;;37.10;12.83;;;;;;;;;;4958615;29;20038;-58
2024/01/11 12:07:14;;;;;;;36.97;13.73;;;;;;;;;;4971348;29;20273;-56
2024/01/11 12:09:41;;;;;;;33.53;11.88;;;;;;;;;;4958826;29;20076;-54
2024/01/11 12:12:07;;;;;;;37.95;13.70;;;;;;;;;;4965376;29;20027;-54
2024/01/11 12:14:32;;;;;;;33.77;12.40;;;;;;;;;;4958623;29;20047;-57
2024/01/11 12:16:58;;;;;;;31.70;12.20;;;;;;;;;;4963096;29;20031;-57
2024/01/11 12:19:25;;;;;;;33.88;12.35;;;;;;;;;;4941687;29;20036;-57
2024/01/11 12:21:50;;;;;;;30.15;10.95;;;;;;;;;;4941315;29;20067;-57
2024/01/11 12:24:16;;;;;;;35.10;13.00;;;;;;;;;;4958423;29;20027;-59
2024/01/11 12:26:42;;;;;;;34.90;12.95;;;;;;;;;;4965212;29;20055;-57
2024/01/11 12:29:09;;;;;;;27.75;10.95;;;;;;;;;;4958300;29;20053;-58
2024/01/11 12:31:35;;;;;;;37.33;12.32;;;;;;;;;;4957987;29;20023;-58
2024/01/11 12:34:00;;;;;;;34.15;12.40;;;;;;;;;;4957865;29;20023;-58
2024/01/11 12:36:26;;;;;;;33.47;12.10;;;;;;;;;;4957676;29;20047;-58
2024/01/11 12:38:52;;;;;;;37.55;11.15;;;;;;;;;;4957880;29;20099;-57
2024/01/11 12:41:18;;;;;;;36.27;11.73;;;;;;;;;;4957739;29;20043;-55
2024/01/11 12:43:44;;;;;;;32.33;12.63;;;;;;;;;;4966499;29;20349;-56
2024/01/11 12:46:09;;;;;;;33.67;11.30;;;;;;;;;;4957699;29;20113;-57
2024/01/11 12:48:35;;;;;;;35.53;13.23;;;;;;;;;;4968746;29;20036;-55
2024/01/11 12:51:00;;;;;;;31.27;11.03;;;;;;;;;;4957591;29;20290;-56
2024/01/11 12:53:26;;;;;;;29.58;10.50;;;;;;;;;;4964114;29;20031;-57
2024/01/11 12:56:08;;;;;;;29.30;10.93;;;;;;;;;;4957483;29;20042;-58
2024/01/11 12:58:34;;;;;;;31.73;12.82;;;;;;;;;;4966611;29;20099;-58
2024/01/11 13:00:59;;;;;;;31.60;11.77;;;;;;;;;;4956144;29;20043;-56
2024/01/11 13:03:27;;;;;;;29.53;11.23;;;;;;;;;;4957597;29;20047;-59
2024/01/11 13:05:52;;;;;;;32.40;11.68;;;;;;;;;;4957309;29;20258;-57
2024/01/11 13:08:18;;;;;;;33.50;11.83;;;;;;;;;;4963412;29;20054;-58
2024/01/11 13:10:43;;;;;;;33.30;11.53;;;;;;;;;;4957309;29;20027;-57
2024/01/11 13:13:09;;;;;;;22.10;8.70;;;;;;;;;;4957400;29;20262;-55
2024/01/11 13:15:36;;;;;;;31.17;10.73;;;;;;;;;;4957326;29;20027;-58
2024/01/11 13:18:01;;;;;;;;;;;;;;;;;;4960330;29;20062;-58
2024/01/11 13:20:27;;;;;;;27.93;10.37;;;;;;;;;;4957283;29;19906;-61
2024/01/11 13:23:11;;;;;;;35.58;11.43;;;;;;;;;;4956964;29;20126;-55
2024/01/11 13:25:36;;;;;;;34.75;12.00;;;;;;;;;;4956689;29;20035;-59
2024/01/11 13:28:02;;;;;;;34.37;10.57;;;;;;;;;;4957272;29;20036;-56
2024/01/11 13:30:27;;;;;;;30.03;10.13;;;;;;;;;;4957264;29;20269;-58
2024/01/11 13:32:53;;;;;;;30.23;11.93;;;;;;;;;;4966428;29;20038;-58
2024/01/11 13:35:20;;;;;;;27.53;11.10;;;;;;;;;;4957202;29;20028;-56
2024/01/11 13:37:45;;;;;;;30.60;11.05;;;;;;;;;;4966261;29;20061;-58
2024/01/11 13:40:12;;;;;;;27.60;10.30;;;;;;;;;;4957345;29;20035;-55
2024/01/11 13:42:38;;;;;;;33.20;11.98;;;;;;;;;;4959321;29;20047;-58
2024/01/11 13:45:06;;;;;;;26.13;11.17;;;;;;;;;;4956735;29;20035;-56
2024/01/11 13:47:31;;;;;;;44.53;18.77;;;;;;;;;;4963049;29;20042;-57
2024/01/11 13:49:56;;;;;;;23.93;11.07;;;;;;;;;;4956592;29;20107;-56
2024/01/11 13:52:22;;;;;;;27.53;10.67;;;;;;;;;;4956084;29;20032;-54
2024/01/11 13:54:47;;;;;;;28.30;11.00;;;;;;;;;;4951644;29;20031;-56
2024/01/11 13:57:13;;;;;;;28.13;11.93;;;;;;;;;;4959171;29;20278;-55
2024/01/11 13:59:38;;;;;;;32.97;12.80;;;;;;;;;;4956683;29;20059;-54
2024/01/11 14:02:04;;;;;;;31.60;10.57;;;;;;;;;;4938986;29;20062;-55
2024/01/11 14:04:29;;;;;;;30.42;11.50;;;;;;;;;;4965303;29;20028;-56
2024/01/11 14:06:55;;;;;;;30.90;10.70;;;;;;;;;;4957654;29;20047;-57
2024/01/11 14:09:22;;;;;;;33.40;12.70;;;;;;;;;;4952296;29;20059;-56
2024/01/11 14:11:48;;;;;;;26.17;10.40;;;;;;;;;;4950015;29;20066;-58